Latest Coastal Weather Observations for Smithton

IDV60701

Issued at 1:11 pm EST Friday 30 September 2016 (issued every 10 minutes, with the page automatically refreshed every 10 minutes)

About coastal observations | Map of coastal stations | Coastal observations for VIC | Marine services | Other Formats
Station Details ID: 091292 Name: SMITHTON AERODROME Lat: -40.83 Lon: 145.08 Height: 7.5 m
Data from the previous 72 hours. | See also: Recent months at Smithton
Date/Time
EST
Temp
°C
Wind Pressure Rain since
9am
mm
Weather Cloud Vis
km
Sea
Height
m
Swell
Dir  Spd
kts
Gust
kts
hPa Trend Height
m
Period
s
Dir
30/01:00pm 11.4 S 8 11 991.6 - 0.0 - - - - - - -
30/12:30pm 12.5 WSW 10 13 991.6 - 0.0 - - - - - - -
30/12:00pm 12.1 WSW 8 11 991.6 - 0.0 - - - - - - -
30/11:30am 11.9 WSW 10 14 991.9 - 0.0 - - - - - - -
30/11:00am 12.0 SW 9 12 992.0 - 0.0 - - - - - - -
30/10:30am 11.4 WSW 9 12 992.2 - 0.0 - - - - - - -
30/10:00am 11.1 SW 8 11 992.3 - 0.0 - - - - - - -
30/09:30am 10.1 S 6 8 992.4 - 0.0 - - - - - - -
30/09:00am 8.8 SSW 6 7 992.4 - 12.6 - - - - - - -
30/08:30am 8.1 S 6 8 992.5 - 12.6 - - - - - - -
30/08:00am 7.1 S 8 10 992.5 - 12.6 - - - - - - -
30/07:30am 6.6 S 6 7 992.4 - 12.6 - - - - - - -
30/07:00am 6.1 S 6 7 992.1 - 12.6 - - - - - - -
30/06:30am 5.9 S 7 8 991.6 - 12.6 - - - - - - -
30/06:00am 5.1 SSW 7 8 991.3 - 12.6 - - - - - - -
30/05:30am 4.7 SSW 5 6 991.2 - 12.6 - - - - - - -
30/05:00am 4.9 S 6 7 991.1 - 12.6 - - - - - - -
30/04:30am 4.7 S 6 7 991.2 - 12.6 - - - - - - -
30/04:00am 4.2 SSW 6 7 991.2 - 12.6 - - - - - - -
30/03:30am 4.8 SSE 6 10 991.5 - 12.6 - - - - - - -
30/03:00am 4.1 S 1 4 991.1 - 12.6 - - - - - - -
30/02:30am 4.2 S 2 5 991.2 - 12.6 - - - - - - -
30/02:00am 4.9 CALM 0 0 991.8 - 12.6 - - - - - - -
30/01:30am 5.2 CALM 0 0 991.9 - 12.6 - - - - - - -
30/01:00am 5.1 S 3 5 992.0 - 12.6 - - - - - - -
30/12:30am 5.2 SSW 2 5 991.8 - 12.6 - - - - - - -
30/12:00am 5.2 SSW 5 6 991.8 - 12.4 - - - - - - -
 
Date/Time
EST
Temp
°C
Wind Pressure Rain since
9am
mm
Weather Cloud Vis
km
Sea
Height
m
Swell
Dir  Spd
kts
Gust
kts
hPa Trend Height
m
Period
s
Dir
29/11:30pm 5.5 N 2 4 991.6 - 12.4 - - - - - - -
29/11:00pm 6.0 CALM 0 0 991.8 - 12.4 - - - - - - -
29/10:30pm 6.3 CALM 0 0 991.5 - 12.4 - - - - - - -
29/10:00pm 6.9 CALM 0 0 991.9 - 12.4 - - - - - - -
29/09:30pm 7.7 CALM 0 0 991.6 - 12.4 - - - - - - -
29/09:00pm 8.7 CALM 0 0 991.5 - 12.4 - - - - - - -
29/08:30pm 9.4 N 1 3 991.2 - 12.4 - - - - - - -
29/08:00pm 9.7 N 4 6 991.2 - 12.4 - - - - - - -
29/07:30pm 10.1 N 3 4 990.8 - 12.4 - - - - - - -
29/07:00pm 10.5 W 1 4 990.4 - 12.4 - - - - - - -
29/06:30pm 10.4 N 4 5 990.0 - 12.4 - - - - - - -
29/06:00pm 10.8 NW 5 6 989.5 - 12.4 - - - - - - -
29/05:30pm 11.0 NW 4 6 989.2 - 12.4 - - - - - - -
29/05:00pm 10.7 S 9 11 988.1 - 12.2 - - - - - - -
29/04:30pm 11.0 CALM 0 0 988.5 - 11.4 - - - - - - -
29/04:00pm 11.1 NNW 4 5 988.2 - 10.6 - - - - - - -
29/03:30pm 11.7 NNW 7 9 988.1 - 9.6 - - - - - - -
29/03:00pm 11.8 NNW 9 12 988.0 - 9.4 - - - - - - -
29/02:30pm 12.6 NNE 8 11 987.8 - 8.8 - - - - - - -
29/02:00pm 12.7 NE 8 10 987.7 - 8.6 - - - - - - -
29/01:30pm 12.4 ENE 10 13 987.8 - 8.2 - - - - - - -
29/01:00pm 12.4 ENE 12 15 988.4 - 7.6 - - - - - - -
29/12:30pm 12.5 E 16 21 988.7 - 7.0 - - - - - - -
29/12:00pm 12.4 ENE 18 25 988.9 - 6.6 - - - - - - -
29/11:30am 12.5 ENE 15 21 988.8 - 6.2 - - - - - - -
29/11:00am 12.0 ENE 15 22 989.3 - 5.6 - - - - - - -
29/10:30am 12.0 E 17 24 989.7 - 4.6 - - - - - - -
29/10:00am 11.9 ENE 17 25 990.5 - 3.8 - - - - - - -
29/09:30am 11.8 ENE 19 25 991.2 - 2.2 - - - - - - -
29/09:03am 12.1 ENE 21 31 991.1 - 0.4 - - - - - - -
29/09:00am 12.1 ENE 21 28 991.3 - 14.6 - - - - - - -
29/08:30am 12.7 E 27 37 991.1 - 12.6 - - - - - - -
29/08:28am 12.7 E 27 37 990.9 - 12.4 - - - - - - -
29/08:24am 12.7 E 31 37 990.8 - 11.8 - - - - - - -
29/08:02am 12.6 E 19 29 990.9 - 10.2 - - - - - - -
29/08:00am 12.5 E 19 25 991.1 - 10.2 - - - - - - -
29/07:30am 12.6 E 21 29 991.3 - 7.8 - - - - - - -
29/07:00am 12.6 E 22 32 991.7 - 6.2 - - - - - - -
29/06:32am 12.6 ENE 24 34 991.8 - 5.6 - - - - - - -
29/06:30am 12.6 ENE 25 34 991.6 - 5.6 - - - - - - -
29/06:01am 12.5 E 23 33 991.7 - 5.0 - - - - - - -
29/06:00am 12.5 E 23 31 991.5 - 5.0 - - - - - - -
29/05:46am 12.6 ENE 21 31 992.3 - 4.4 - - - - - - -
29/05:30am 12.5 ENE 23 31 992.6 - 3.6 - - - - - - -
29/05:00am 12.5 ENE 23 33 992.5 - 1.8 - - - - - - -
29/04:35am 12.5 E 23 34 992.3 - 1.0 - - - - - - -
29/04:30am 12.5 E 23 29 992.5 - 1.0 - - - - - - -
29/04:00am 12.5 E 24 35 992.7 - 0.4 - - - - - - -
29/03:30am 12.7 E 26 36 993.7 - 0.0 - - - - - - -
29/03:00am 12.9 ENE 26 41 994.4 - 0.0 - - - - - - -
29/02:30am 12.9 E 29 43 994.4 - 0.0 - - - - - - -
29/02:00am 12.7 E 29 41 994.9 - 0.0 - - - - - - -
29/01:42am 12.7 E 26 39 995.5 - 0.0 - - - - - - -
29/01:30am 12.8 E 26 35 996.0 - 0.0 - - - - - - -
29/01:00am 12.6 E 26 37 996.6 - 0.0 - - - - - - -
29/12:30am 12.5 E 25 38 997.9 - 0.0 - - - - - - -
29/12:00am 12.6 E 24 35 998.7 - 0.0 - - - - - - -
 
Date/Time
EST
Temp
°C
Wind Pressure Rain since
9am
mm
Weather Cloud Vis
km
Sea
Height
m
Swell
Dir  Spd
kts
Gust
kts
hPa Trend Height
m
Period
s
Dir
28/11:37pm 12.4 E 22 32 999.7 - 0.0 - - - - - - -
28/11:30pm 12.2 E 24 32 999.5 - 0.0 - - - - - - -
28/11:00pm 12.0 E 21 30 999.9 - 0.0 - - - - - - -
28/10:30pm 12.3 E 20 31 1000.5 - 0.0 - - - - - - -
28/10:27pm 12.2 ENE 20 30 1000.8 - 0.0 - - - - - - -
28/10:00pm 12.3 ENE 22 30 1001.2 - 0.0 - - - - - - -
28/09:30pm 12.2 ENE 21 30 1001.6 - 0.0 - - - - - - -
28/09:22pm 12.1 E 20 30 1001.5 - 0.0 - - - - - - -
28/09:00pm 12.0 E 20 28 1001.8 - 0.0 - - - - - - -
28/08:30pm 11.8 E 15 22 1002.3 - 0.0 - - - - - - -
28/08:00pm 11.7 E 14 20 1002.9 - 0.0 - - - - - - -
28/07:30pm 11.5 E 12 17 1003.4 - 0.0 - - - - - - -
28/07:00pm 11.5 E 12 17 1003.7 - 0.0 - - - - - - -
28/06:30pm 11.9 ENE 14 19 1003.9 - 0.0 - - - - - - -
28/06:00pm 12.0 ENE 12 15 1004.0 - 0.0 - - - - - - -
28/05:30pm 12.2 ENE 13 18 1003.7 - 0.0 - - - - - - -
28/05:00pm 12.7 ENE 13 18 1003.9 - 0.0 - - - - - - -
28/04:30pm 13.2 ENE 12 16 1004.0 - 0.0 - - - - - - -
28/04:00pm 13.6 NE 14 17 1004.4 - 0.0 - - - - - - -
28/03:30pm 14.2 NE 13 17 1005.0 - 0.0 - - - - - - -
28/03:00pm 14.8 NE 11 14 1004.6 - 0.0 - - - - - - -
28/02:30pm 14.2 ENE 12 14 1005.3 - 0.0 - - - - - - -
28/02:00pm 14.2 NE 12 17 1006.2 - 0.0 - - - - - - -
28/01:30pm 14.4 NNE 12 16 1007.2 - 0.0 - - - - - - -
28/01:00pm 14.4 NNE 12 16 1007.7 - 0.0 - - - - - - -
28/12:30pm 14.1 NNE 12 14 1008.2 - 0.0 - - - - - - -
28/12:00pm 14.8 NNE 10 13 1008.6 - 0.0 - - - - - - -
28/11:30am 13.9 NE 10 13 1008.9 - 0.0 - - - - - - -
28/11:00am 14.0 N 10 12 1009.3 - 0.0 - - - - - - -
28/10:30am 13.5 NNE 9 12 1009.6 - 0.0 - - - - - - -
28/10:00am 13.9 NNE 7 9 1009.9 - 0.0 - - - - - - -
28/09:30am 13.4 N 6 8 1010.2 - 0.0 - - - - - - -
28/09:00am 12.8 NW 5 7 1010.4 - 2.4 - - - - - - -
28/08:30am 11.5 NW 3 5 1010.4 - 2.4 - - - - - - -
28/08:00am 10.8 CALM 0 0 1010.5 - 2.4 - - - - - - -
28/07:30am 9.1 CALM 0 0 1010.6 - 2.4 - - - - - - -
28/07:00am 7.9 W 3 3 1010.5 - 2.4 - - - - - - -
28/06:30am 8.1 W 4 4 1010.4 - 2.4 - - - - - - -
28/06:00am 9.1 CALM 0 0 1010.1 - 2.4 - - - - - - -
28/05:30am 9.4 W 1 3 1010.0 - 2.4 - - - - - - -
28/05:00am 9.5 W 4 5 1009.9 - 2.4 - - - - - - -
28/04:30am 9.4 W 4 5 1009.9 - 2.4 - - - - - - -
28/04:00am 9.5 W 3 4 1009.6 - 2.4 - - - - - - -
28/03:30am 9.4 W 3 4 1009.6 - 2.4 - - - - - - -
28/03:00am 10.0 W 4 5 1009.5 - 2.4 - - - - - - -
28/02:30am 10.1 NW 6 8 1009.6 - 2.4 - - - - - - -
28/02:00am 10.1 W 4 5 1009.8 - 2.4 - - - - - - -
28/01:30am 10.2 WNW 4 5 1009.7 - 2.4 - - - - - - -
28/01:00am 10.4 W 3 4 1009.9 - 2.4 - - - - - - -
28/12:30am 10.5 W 6 8 1010.0 - 2.4 - - - - - - -
28/12:00am 10.4 WNW 8 9 1010.0 - 2.4 - - - - - - -
 
Date/Time
EST
Temp
°C
Wind Pressure Rain since
9am
mm
Weather Cloud Vis
km
Sea
Height
m
Swell
Dir  Spd
kts
Gust
kts
hPa Trend Height
m
Period
s
Dir
27/11:30pm 11.1 WNW 10 15 1009.8 - 2.4 - - - - - - -
27/11:00pm 11.0 NW 9 12 1009.8 - 2.4 - - - - - - -
27/10:30pm 10.7 NW 6 8 1009.8 - 2.4 - - - - - - -
27/10:00pm 11.0 WNW 6 8 1009.9 - 2.0 - - - - - - -
27/09:30pm 10.4 WNW 2 4 1010.1 - 0.2 - - - - - - -
27/09:00pm 9.6 WNW 3 5 1010.2 - 0.2 - - - - - - -
27/08:30pm 8.4 CALM 0 0 1010.3 - 0.2 - - - - - - -
27/08:00pm 8.3 CALM 0 0 1010.3 - 0.2 - - - - - - -
27/07:30pm 8.2 W 3 4 1010.4 - 0.2 - - - - - - -
27/07:00pm 8.7 CALM 0 0 1010.5 - 0.2 - - - - - - -
27/06:30pm 10.0 W 7 9 1010.3 - 0.2 - - - - - - -
27/06:00pm 11.3 W 7 10 1010.0 - 0.2 - - - - - - -
27/05:30pm 12.4 W 8 11 1009.7 - 0.2 - - - - - - -
27/05:00pm 12.6 W 12 16 1009.5 - 0.2 - - - - - - -
27/04:30pm 13.0 WSW 13 16 1009.3 - 0.2 - - - - - - -
27/04:00pm 13.6 W 13 19 1008.9 - 0.2 - - - - - - -
27/03:30pm 14.2 W 12 15 1008.6 - 0.2 - - - - - - -
27/03:00pm 14.1 WNW 10 13 1008.6 - 0.2 - - - - - - -
27/02:30pm 14.3 NW 14 17 1008.5 - 0.2 - - - - - - -
27/02:00pm 15.4 NW 11 16 1008.5 - 0.2 - - - - - - -
27/01:30pm 13.7 WSW 8 12 1008.7 - 0.2 - - - - - - -

Other Formats:

Comma delimited format used in spreadsheet applications
http://www.bom.gov.au/fwo/IDV60701/IDV60701.94953.axf

JavaScript Object Notation format (JSON) in row-major order
http://www.bom.gov.au/fwo/IDV60701/IDV60701.94953.json